sensor_id;sensor_type;location;lat;lon;timestamp;P1;durP1;ratioP1;P2;durP2;ratioP2
22417;SDS011;11376;50.932;4.442;2022-09-09T00:01:56;0.00;;;0.00;;
22417;SDS011;11376;50.932;4.442;2022-09-09T00:04:37;0.00;;;0.00;;
22417;SDS011;11376;50.932;4.442;2022-09-09T00:07:14;0.00;;;0.00;;
22417;SDS011;11376;50.932;4.442;2022-09-09T00:10:11;0.00;;;0.00;;
22417;SDS011;11376;50.932;4.442;2022-09-09T00:15:34;0.00;;;0.00;;
22417;SDS011;11376;50.932;4.442;2022-09-09T00:20:51;0.00;;;0.00;;
22417;SDS011;11376;50.932;4.442;2022-09-09T00:23:32;0.00;;;0.00;;
22417;SDS011;11376;50.932;4.442;2022-09-09T00:31:36;0.00;;;0.00;;
22417;SDS011;11376;50.932;4.442;2022-09-09T00:34:03;0.00;;;0.00;;
22417;SDS011;11376;50.932;4.442;2022-09-09T00:36:48;0.00;;;0.00;;
22417;SDS011;11376;50.932;4.442;2022-09-09T00:39:29;0.00;;;0.00;;
22417;SDS011;11376;50.932;4.442;2022-09-09T00:42:07;0.00;;;0.00;;
22417;SDS011;11376;50.932;4.442;2022-09-09T00:44:46;0.00;;;0.00;;
22417;SDS011;11376;50.932;4.442;2022-09-09T00:49:59;0.30;;;0.28;;
22417;SDS011;11376;50.932;4.442;2022-09-09T00:52:35;0.00;;;0.00;;
22417;SDS011;11376;50.932;4.442;2022-09-09T00:55:26;0.00;;;0.00;;
22417;SDS011;11376;50.932;4.442;2022-09-09T00:57:57;0.00;;;0.00;;
22417;SDS011;11376;50.932;4.442;2022-09-09T01:00:34;0.00;;;0.00;;
22417;SDS011;11376;50.932;4.442;2022-09-09T01:11:36;0.00;;;0.00;;
22417;SDS011;11376;50.932;4.442;2022-09-09T01:14:24;0.80;;;0.55;;
22417;SDS011;11376;50.932;4.442;2022-09-09T01:17:00;0.00;;;0.00;;
22417;SDS011;11376;50.932;4.442;2022-09-09T01:22:21;0.00;;;0.00;;
22417;SDS011;11376;50.932;4.442;2022-09-09T01:27:56;0.00;;;0.00;;
22417;SDS011;11376;50.932;4.442;2022-09-09T01:30:24;0.00;;;0.00;;
22417;SDS011;11376;50.932;4.442;2022-09-09T01:32:56;0.00;;;0.00;;
22417;SDS011;11376;50.932;4.442;2022-09-09T01:38:07;0.00;;;0.00;;
22417;SDS011;11376;50.932;4.442;2022-09-09T01:40:33;0.00;;;0.00;;
22417;SDS011;11376;50.932;4.442;2022-09-09T01:42:59;0.00;;;0.00;;
22417;SDS011;11376;50.932;4.442;2022-09-09T01:45:25;0.00;;;0.00;;
22417;SDS011;11376;50.932;4.442;2022-09-09T01:47:51;0.00;;;0.00;;
22417;SDS011;11376;50.932;4.442;2022-09-09T01:50:18;0.00;;;0.00;;
22417;SDS011;11376;50.932;4.442;2022-09-09T01:52:45;0.20;;;0.20;;
22417;SDS011;11376;50.932;4.442;2022-09-09T01:55:14;0.00;;;0.00;;
22417;SDS011;11376;50.932;4.442;2022-09-09T02:00:30;0.00;;;0.00;;
22417;SDS011;11376;50.932;4.442;2022-09-09T02:03:05;0.00;;;0.00;;
22417;SDS011;11376;50.932;4.442;2022-09-09T02:05:39;0.00;;;0.00;;
22417;SDS011;11376;50.932;4.442;2022-09-09T02:08:17;0.00;;;0.00;;
22417;SDS011;11376;50.932;4.442;2022-09-09T02:13:43;0.00;;;0.00;;
22417;SDS011;11376;50.932;4.442;2022-09-09T02:18:50;0.00;;;0.00;;
22417;SDS011;11376;50.932;4.442;2022-09-09T02:21:20;0.00;;;0.00;;
22417;SDS011;11376;50.932;4.442;2022-09-09T02:23:48;0.30;;;0.17;;
22417;SDS011;11376;50.932;4.442;2022-09-09T02:26:17;0.00;;;0.00;;
22417;SDS011;11376;50.932;4.442;2022-09-09T02:28:45;0.00;;;0.00;;
22417;SDS011;11376;50.932;4.442;2022-09-09T02:31:12;0.00;;;0.00;;
22417;SDS011;11376;50.932;4.442;2022-09-09T02:33:43;0.00;;;0.00;;
22417;SDS011;11376;50.932;4.442;2022-09-09T02:36:12;0.00;;;0.00;;
22417;SDS011;11376;50.932;4.442;2022-09-09T02:38:42;0.00;;;0.00;;
22417;SDS011;11376;50.932;4.442;2022-09-09T02:41:15;14.25;;;0.47;;
22417;SDS011;11376;50.932;4.442;2022-09-09T02:43:46;4.85;;;1.25;;
22417;SDS011;11376;50.932;4.442;2022-09-09T02:46:23;0.00;;;0.00;;
22417;SDS011;11376;50.932;4.442;2022-09-09T02:51:30;0.00;;;0.00;;
22417;SDS011;11376;50.932;4.442;2022-09-09T02:56:51;0.00;;;0.00;;
22417;SDS011;11376;50.932;4.442;2022-09-09T02:59:19;0.00;;;0.00;;
22417;SDS011;11376;50.932;4.442;2022-09-09T03:01:46;1.08;;;0.90;;
22417;SDS011;11376;50.932;4.442;2022-09-09T03:04:12;0.22;;;0.15;;
22417;SDS011;11376;50.932;4.442;2022-09-09T03:06:38;0.00;;;0.00;;
22417;SDS011;11376;50.932;4.442;2022-09-09T03:09:04;0.00;;;0.00;;
22417;SDS011;11376;50.932;4.442;2022-09-09T03:11:29;0.00;;;0.00;;
22417;SDS011;11376;50.932;4.442;2022-09-09T03:13:55;0.00;;;0.00;;
22417;SDS011;11376;50.932;4.442;2022-09-09T03:16:24;0.40;;;0.40;;
22417;SDS011;11376;50.932;4.442;2022-09-09T03:18:50;0.15;;;0.15;;
22417;SDS011;11376;50.932;4.442;2022-09-09T03:21:15;0.00;;;0.00;;
22417;SDS011;11376;50.932;4.442;2022-09-09T03:23:41;0.10;;;0.10;;
22417;SDS011;11376;50.932;4.442;2022-09-09T03:26:09;0.00;;;0.00;;
22417;SDS011;11376;50.932;4.442;2022-09-09T03:28:35;0.00;;;0.00;;
22417;SDS011;11376;50.932;4.442;2022-09-09T03:31:01;0.00;;;0.00;;
22417;SDS011;11376;50.932;4.442;2022-09-09T03:33:29;0.15;;;0.15;;
22417;SDS011;11376;50.932;4.442;2022-09-09T03:35:55;0.35;;;0.35;;
22417;SDS011;11376;50.932;4.442;2022-09-09T03:38:22;0.00;;;0.00;;
22417;SDS011;11376;50.932;4.442;2022-09-09T03:40:51;0.52;;;0.40;;
22417;SDS011;11376;50.932;4.442;2022-09-09T03:43:22;0.00;;;0.00;;
22417;SDS011;11376;50.932;4.442;2022-09-09T03:45:51;0.00;;;0.00;;
22417;SDS011;11376;50.932;4.442;2022-09-09T03:48:17;0.05;;;0.05;;
22417;SDS011;11376;50.932;4.442;2022-09-09T03:50:47;0.00;;;0.00;;
22417;SDS011;11376;50.932;4.442;2022-09-09T03:53:14;0.00;;;0.00;;
22417;SDS011;11376;50.932;4.442;2022-09-09T03:55:47;0.00;;;0.00;;
22417;SDS011;11376;50.932;4.442;2022-09-09T03:58:14;0.00;;;0.00;;
22417;SDS011;11376;50.932;4.442;2022-09-09T04:00:41;0.32;;;0.32;;
22417;SDS011;11376;50.932;4.442;2022-09-09T04:03:09;0.00;;;0.00;;
22417;SDS011;11376;50.932;4.442;2022-09-09T04:05:36;0.00;;;0.00;;
22417;SDS011;11376;50.932;4.442;2022-09-09T04:08:07;0.00;;;0.00;;
22417;SDS011;11376;50.932;4.442;2022-09-09T04:10:33;0.00;;;0.00;;
22417;SDS011;11376;50.932;4.442;2022-09-09T04:13:02;0.00;;;0.00;;
22417;SDS011;11376;50.932;4.442;2022-09-09T04:15:28;2.63;;;0.63;;
22417;SDS011;11376;50.932;4.442;2022-09-09T04:17:54;0.00;;;0.00;;
22417;SDS011;11376;50.932;4.442;2022-09-09T04:20:20;0.00;;;0.00;;
22417;SDS011;11376;50.932;4.442;2022-09-09T04:22:47;0.00;;;0.00;;
22417;SDS011;11376;50.932;4.442;2022-09-09T04:25:12;0.00;;;0.00;;
22417;SDS011;11376;50.932;4.442;2022-09-09T04:27:38;0.20;;;0.20;;
22417;SDS011;11376;50.932;4.442;2022-09-09T04:30:05;0.13;;;0.10;;
22417;SDS011;11376;50.932;4.442;2022-09-09T04:32:32;0.65;;;0.65;;
22417;SDS011;11376;50.932;4.442;2022-09-09T04:34:58;0.00;;;0.00;;
22417;SDS011;11376;50.932;4.442;2022-09-09T04:37:24;0.00;;;0.00;;
22417;SDS011;11376;50.932;4.442;2022-09-09T04:39:50;0.00;;;0.00;;
22417;SDS011;11376;50.932;4.442;2022-09-09T04:42:15;0.00;;;0.00;;
22417;SDS011;11376;50.932;4.442;2022-09-09T04:47:23;0.00;;;0.00;;
22417;SDS011;11376;50.932;4.442;2022-09-09T04:49:48;0.00;;;0.00;;
22417;SDS011;11376;50.932;4.442;2022-09-09T04:52:14;0.10;;;0.10;;
22417;SDS011;11376;50.932;4.442;2022-09-09T04:54:42;0.00;;;0.00;;
22417;SDS011;11376;50.932;4.442;2022-09-09T04:57:07;0.00;;;0.00;;
22417;SDS011;11376;50.932;4.442;2022-09-09T04:59:35;0.00;;;0.00;;
22417;SDS011;11376;50.932;4.442;2022-09-09T05:02:01;0.55;;;0.43;;
22417;SDS011;11376;50.932;4.442;2022-09-09T05:04:28;0.00;;;0.00;;
22417;SDS011;11376;50.932;4.442;2022-09-09T05:06:53;0.00;;;0.00;;
22417;SDS011;11376;50.932;4.442;2022-09-09T05:09:19;0.00;;;0.00;;
22417;SDS011;11376;50.932;4.442;2022-09-09T05:11:44;0.00;;;0.00;;
22417;SDS011;11376;50.932;4.442;2022-09-09T05:14:11;0.10;;;0.10;;
22417;SDS011;11376;50.932;4.442;2022-09-09T05:16:37;0.00;;;0.00;;
22417;SDS011;11376;50.932;4.442;2022-09-09T05:19:02;0.00;;;0.00;;
22417;SDS011;11376;50.932;4.442;2022-09-09T05:21:28;0.00;;;0.00;;
22417;SDS011;11376;50.932;4.442;2022-09-09T05:23:55;0.22;;;0.20;;
22417;SDS011;11376;50.932;4.442;2022-09-09T05:26:22;0.25;;;0.17;;
22417;SDS011;11376;50.932;4.442;2022-09-09T05:28:47;0.00;;;0.00;;
22417;SDS011;11376;50.932;4.442;2022-09-09T05:31:14;0.00;;;0.00;;
22417;SDS011;11376;50.932;4.442;2022-09-09T05:33:42;0.00;;;0.00;;
22417;SDS011;11376;50.932;4.442;2022-09-09T05:36:11;0.00;;;0.00;;
22417;SDS011;11376;50.932;4.442;2022-09-09T05:38:40;0.00;;;0.00;;
22417;SDS011;11376;50.932;4.442;2022-09-09T05:41:06;0.08;;;0.08;;
22417;SDS011;11376;50.932;4.442;2022-09-09T05:43:32;0.00;;;0.00;;
22417;SDS011;11376;50.932;4.442;2022-09-09T05:46:03;2.85;;;0.98;;
22417;SDS011;11376;50.932;4.442;2022-09-09T05:48:34;0.00;;;0.00;;
22417;SDS011;11376;50.932;4.442;2022-09-09T05:51:02;0.10;;;0.10;;
22417;SDS011;11376;50.932;4.442;2022-09-09T05:53:30;1.13;;;0.52;;
22417;SDS011;11376;50.932;4.442;2022-09-09T05:56:00;0.00;;;0.00;;
22417;SDS011;11376;50.932;4.442;2022-09-09T05:58:39;0.00;;;0.00;;
22417;SDS011;11376;50.932;4.442;2022-09-09T06:01:06;0.00;;;0.00;;
22417;SDS011;11376;50.932;4.442;2022-09-09T06:03:34;0.00;;;0.00;;
22417;SDS011;11376;50.932;4.442;2022-09-09T06:06:01;0.00;;;0.00;;
22417;SDS011;11376;50.932;4.442;2022-09-09T06:08:34;0.00;;;0.00;;
22417;SDS011;11376;50.932;4.442;2022-09-09T06:11:08;0.00;;;0.00;;
22417;SDS011;11376;50.932;4.442;2022-09-09T06:14:03;0.00;;;0.00;;
22417;SDS011;11376;50.932;4.442;2022-09-09T06:16:29;0.00;;;0.00;;
22417;SDS011;11376;50.932;4.442;2022-09-09T06:18:57;2.08;;;0.85;;
22417;SDS011;11376;50.932;4.442;2022-09-09T06:21:27;0.10;;;0.10;;
22417;SDS011;11376;50.932;4.442;2022-09-09T06:24:02;0.00;;;0.00;;
22417;SDS011;11376;50.932;4.442;2022-09-09T06:26:30;0.00;;;0.00;;
22417;SDS011;11376;50.932;4.442;2022-09-09T06:28:57;0.00;;;0.00;;
22417;SDS011;11376;50.932;4.442;2022-09-09T06:31:24;0.00;;;0.00;;
22417;SDS011;11376;50.932;4.442;2022-09-09T06:33:52;0.00;;;0.00;;
22417;SDS011;11376;50.932;4.442;2022-09-09T06:36:20;0.00;;;0.00;;
22417;SDS011;11376;50.932;4.442;2022-09-09T06:38:50;0.00;;;0.00;;
22417;SDS011;11376;50.932;4.442;2022-09-09T06:41:17;0.00;;;0.00;;
22417;SDS011;11376;50.932;4.442;2022-09-09T06:43:45;0.00;;;0.00;;
22417;SDS011;11376;50.932;4.442;2022-09-09T06:46:12;0.00;;;0.00;;
22417;SDS011;11376;50.932;4.442;2022-09-09T06:48:43;0.00;;;0.00;;
22417;SDS011;11376;50.932;4.442;2022-09-09T06:53:36;0.00;;;0.00;;
22417;SDS011;11376;50.932;4.442;2022-09-09T06:58:53;29.30;;;1.27;;
22417;SDS011;11376;50.932;4.442;2022-09-09T07:01:20;0.20;;;0.20;;
22417;SDS011;11376;50.932;4.442;2022-09-09T07:03:49;0.00;;;0.00;;
22417;SDS011;11376;50.932;4.442;2022-09-09T07:06:17;0.00;;;0.00;;
22417;SDS011;11376;50.932;4.442;2022-09-09T07:08:48;4.70;;;0.85;;
22417;SDS011;11376;50.932;4.442;2022-09-09T07:11:20;5.13;;;1.30;;
22417;SDS011;11376;50.932;4.442;2022-09-09T07:13:54;2.50;;;1.00;;
22417;SDS011;11376;50.932;4.442;2022-09-09T07:16:22;6.35;;;0.90;;
22417;SDS011;11376;50.932;4.442;2022-09-09T07:18:52;6.40;;;0.95;;
22417;SDS011;11376;50.932;4.442;2022-09-09T07:21:22;9.23;;;1.17;;
22417;SDS011;11376;50.932;4.442;2022-09-09T07:23:51;5.40;;;1.25;;
22417;SDS011;11376;50.932;4.442;2022-09-09T07:26:17;11.77;;;1.35;;
22417;SDS011;11376;50.932;4.442;2022-09-09T07:28:47;7.75;;;1.05;;
22417;SDS011;11376;50.932;4.442;2022-09-09T07:31:17;8.63;;;1.23;;
22417;SDS011;11376;50.932;4.442;2022-09-09T07:33:45;4.10;;;0.85;;
22417;SDS011;11376;50.932;4.442;2022-09-09T07:38:43;6.47;;;1.25;;
22417;SDS011;11376;50.932;4.442;2022-09-09T07:41:15;7.00;;;1.20;;
22417;SDS011;11376;50.932;4.442;2022-09-09T07:43:52;5.47;;;0.70;;
22417;SDS011;11376;50.932;4.442;2022-09-09T07:46:19;3.03;;;0.70;;
22417;SDS011;11376;50.932;4.442;2022-09-09T07:48:49;4.47;;;0.82;;
22417;SDS011;11376;50.932;4.442;2022-09-09T07:51:17;7.22;;;1.00;;
22417;SDS011;11376;50.932;4.442;2022-09-09T07:53:52;2.25;;;0.80;;
22417;SDS011;11376;50.932;4.442;2022-09-09T07:56:19;7.28;;;1.10;;
22417;SDS011;11376;50.932;4.442;2022-09-09T07:58:48;5.47;;;0.95;;
22417;SDS011;11376;50.932;4.442;2022-09-09T08:01:17;7.10;;;1.02;;
22417;SDS011;11376;50.932;4.442;2022-09-09T08:03:45;3.65;;;0.60;;
22417;SDS011;11376;50.932;4.442;2022-09-09T08:06:11;3.65;;;0.82;;
22417;SDS011;11376;50.932;4.442;2022-09-09T08:08:37;9.70;;;1.02;;
22417;SDS011;11376;50.932;4.442;2022-09-09T08:11:08;5.20;;;1.05;;
22417;SDS011;11376;50.932;4.442;2022-09-09T08:13:39;4.68;;;0.98;;
22417;SDS011;11376;50.932;4.442;2022-09-09T08:16:06;6.53;;;1.00;;
22417;SDS011;11376;50.932;4.442;2022-09-09T08:18:33;8.65;;;1.40;;
22417;SDS011;11376;50.932;4.442;2022-09-09T08:21:10;8.07;;;0.88;;
22417;SDS011;11376;50.932;4.442;2022-09-09T08:23:41;6.47;;;1.00;;
22417;SDS011;11376;50.932;4.442;2022-09-09T08:26:17;10.20;;;1.35;;
22417;SDS011;11376;50.932;4.442;2022-09-09T08:28:46;3.95;;;0.82;;
22417;SDS011;11376;50.932;4.442;2022-09-09T08:31:14;7.60;;;1.55;;
22417;SDS011;11376;50.932;4.442;2022-09-09T08:33:42;11.52;;;1.23;;
22417;SDS011;11376;50.932;4.442;2022-09-09T08:36:11;6.25;;;1.00;;
22417;SDS011;11376;50.932;4.442;2022-09-09T08:38:40;5.55;;;1.15;;
22417;SDS011;11376;50.932;4.442;2022-09-09T08:41:21;9.45;;;1.35;;
22417;SDS011;11376;50.932;4.442;2022-09-09T08:52:08;9.35;;;1.15;;
22417;SDS011;11376;50.932;4.442;2022-09-09T08:54:41;10.10;;;1.23;;
22417;SDS011;11376;50.932;4.442;2022-09-09T08:57:08;4.65;;;1.17;;
22417;SDS011;11376;50.932;4.442;2022-09-09T08:59:39;3.22;;;0.82;;
22417;SDS011;11376;50.932;4.442;2022-09-09T09:02:14;6.55;;;1.20;;
22417;SDS011;11376;50.932;4.442;2022-09-09T09:13:20;5.72;;;1.13;;
22417;SDS011;11376;50.932;4.442;2022-09-09T09:16:02;4.05;;;1.27;;
22417;SDS011;11376;50.932;4.442;2022-09-09T09:18:40;6.07;;;1.33;;
22417;SDS011;11376;50.932;4.442;2022-09-09T09:21:17;3.78;;;0.85;;
22417;SDS011;11376;50.932;4.442;2022-09-09T09:23:52;5.18;;;1.20;;
22417;SDS011;11376;50.932;4.442;2022-09-09T09:26:22;6.38;;;1.20;;
22417;SDS011;11376;50.932;4.442;2022-09-09T09:28:52;3.47;;;1.00;;
22417;SDS011;11376;50.932;4.442;2022-09-09T09:31:22;5.88;;;1.23;;
22417;SDS011;11376;50.932;4.442;2022-09-09T09:33:55;6.82;;;1.25;;
22417;SDS011;11376;50.932;4.442;2022-09-09T09:36:32;7.35;;;0.95;;
22417;SDS011;11376;50.932;4.442;2022-09-09T09:39:21;3.35;;;0.70;;
22417;SDS011;11376;50.932;4.442;2022-09-09T09:41:48;5.97;;;1.10;;
22417;SDS011;11376;50.932;4.442;2022-09-09T09:44:31;6.53;;;1.40;;
22417;SDS011;11376;50.932;4.442;2022-09-09T09:49:39;4.60;;;1.15;;
22417;SDS011;11376;50.932;4.442;2022-09-09T09:52:17;5.07;;;0.82;;
22417;SDS011;11376;50.932;4.442;2022-09-09T09:54:47;4.45;;;0.80;;
22417;SDS011;11376;50.932;4.442;2022-09-09T09:57:14;3.97;;;0.95;;
22417;SDS011;11376;50.932;4.442;2022-09-09T09:59:41;4.72;;;0.80;;
22417;SDS011;11376;50.932;4.442;2022-09-09T10:02:20;6.97;;;1.02;;
22417;SDS011;11376;50.932;4.442;2022-09-09T10:08:13;8.60;;;1.10;;
22417;SDS011;11376;50.932;4.442;2022-09-09T10:11:19;4.53;;;1.00;;
22417;SDS011;11376;50.932;4.442;2022-09-09T10:19:05;5.53;;;0.90;;
22417;SDS011;11376;50.932;4.442;2022-09-09T10:27:24;4.22;;;0.75;;
22417;SDS011;11376;50.932;4.442;2022-09-09T10:32:46;4.68;;;0.80;;
22417;SDS011;11376;50.932;4.442;2022-09-09T10:35:14;2.90;;;0.50;;
22417;SDS011;11376;50.932;4.442;2022-09-09T10:54:29;3.53;;;0.63;;
22417;SDS011;11376;50.932;4.442;2022-09-09T10:57:03;5.13;;;0.82;;
22417;SDS011;11376;50.932;4.442;2022-09-09T10:59:36;5.28;;;0.90;;
22417;SDS011;11376;50.932;4.442;2022-09-09T11:02:27;3.38;;;0.70;;
22417;SDS011;11376;50.932;4.442;2022-09-09T11:04:59;4.72;;;1.00;;
22417;SDS011;11376;50.932;4.442;2022-09-09T11:07:40;4.72;;;0.70;;
22417;SDS011;11376;50.932;4.442;2022-09-09T11:15:42;6.53;;;0.80;;
22417;SDS011;11376;50.932;4.442;2022-09-09T11:18:16;3.60;;;0.60;;
22417;SDS011;11376;50.932;4.442;2022-09-09T11:20:47;4.97;;;0.70;;
22417;SDS011;11376;50.932;4.442;2022-09-09T11:23:26;3.75;;;0.68;;
22417;SDS011;11376;50.932;4.442;2022-09-09T11:25:59;3.38;;;0.50;;
22417;SDS011;11376;50.932;4.442;2022-09-09T11:31:35;4.10;;;0.60;;
22417;SDS011;11376;50.932;4.442;2022-09-09T11:37:22;0.70;;;0.20;;
22417;SDS011;11376;50.932;4.442;2022-09-09T11:43:00;3.85;;;0.80;;
22417;SDS011;11376;50.932;4.442;2022-09-09T11:45:37;1.70;;;0.32;;
22417;SDS011;11376;50.932;4.442;2022-09-09T11:48:21;2.65;;;0.50;;
22417;SDS011;11376;50.932;4.442;2022-09-09T11:51:10;2.10;;;0.40;;
22417;SDS011;11376;50.932;4.442;2022-09-09T11:53:49;1.35;;;0.20;;
22417;SDS011;11376;50.932;4.442;2022-09-09T12:01:29;1.13;;;0.17;;
22417;SDS011;11376;50.932;4.442;2022-09-09T12:04:17;2.60;;;0.43;;
22417;SDS011;11376;50.932;4.442;2022-09-09T12:11:48;4.45;;;0.60;;
22417;SDS011;11376;50.932;4.442;2022-09-09T12:14:22;6.03;;;0.50;;
22417;SDS011;11376;50.932;4.442;2022-09-09T12:17:18;4.30;;;1.02;;
22417;SDS011;11376;50.932;4.442;2022-09-09T12:19:45;4.00;;;0.50;;
22417;SDS011;11376;50.932;4.442;2022-09-09T12:27:26;1.17;;;0.30;;
22417;SDS011;11376;50.932;4.442;2022-09-09T12:30:08;1.95;;;0.43;;
22417;SDS011;11376;50.932;4.442;2022-09-09T12:32:36;1.17;;;0.40;;
22417;SDS011;11376;50.932;4.442;2022-09-09T12:35:03;3.65;;;0.63;;
22417;SDS011;11376;50.932;4.442;2022-09-09T12:37:43;3.67;;;0.52;;
22417;SDS011;11376;50.932;4.442;2022-09-09T12:42:48;3.55;;;0.52;;
22417;SDS011;11376;50.932;4.442;2022-09-09T12:45:16;1.13;;;0.30;;
22417;SDS011;11376;50.932;4.442;2022-09-09T12:47:45;2.42;;;0.30;;
22417;SDS011;11376;50.932;4.442;2022-09-09T12:50:29;1.92;;;0.38;;
22417;SDS011;11376;50.932;4.442;2022-09-09T12:53:30;3.13;;;0.47;;
22417;SDS011;11376;50.932;4.442;2022-09-09T12:56:00;2.15;;;0.40;;
22417;SDS011;11376;50.932;4.442;2022-09-09T12:58:32;2.38;;;0.30;;
22417;SDS011;11376;50.932;4.442;2022-09-09T13:00:59;2.40;;;0.25;;
22417;SDS011;11376;50.932;4.442;2022-09-09T13:03:28;1.38;;;0.30;;
22417;SDS011;11376;50.932;4.442;2022-09-09T13:05:54;1.73;;;0.25;;
22417;SDS011;11376;50.932;4.442;2022-09-09T13:08:25;4.25;;;0.30;;
22417;SDS011;11376;50.932;4.442;2022-09-09T13:10:53;2.08;;;0.50;;
22417;SDS011;11376;50.932;4.442;2022-09-09T13:13:21;3.28;;;0.50;;
22417;SDS011;11376;50.932;4.442;2022-09-09T13:15:54;1.83;;;0.40;;
22417;SDS011;11376;50.932;4.442;2022-09-09T13:18:23;5.80;;;0.50;;
22417;SDS011;11376;50.932;4.442;2022-09-09T13:20:54;2.80;;;0.43;;
22417;SDS011;11376;50.932;4.442;2022-09-09T13:23:22;3.47;;;0.47;;
22417;SDS011;11376;50.932;4.442;2022-09-09T13:26:00;4.50;;;0.43;;
22417;SDS011;11376;50.932;4.442;2022-09-09T13:28:29;5.70;;;0.50;;
22417;SDS011;11376;50.932;4.442;2022-09-09T13:33:28;2.20;;;0.28;;
22417;SDS011;11376;50.932;4.442;2022-09-09T13:35:59;2.80;;;0.40;;
22417;SDS011;11376;50.932;4.442;2022-09-09T13:38:55;2.72;;;0.28;;
22417;SDS011;11376;50.932;4.442;2022-09-09T13:41:24;3.05;;;0.63;;
22417;SDS011;11376;50.932;4.442;2022-09-09T13:44:01;0.95;;;0.20;;
22417;SDS011;11376;50.932;4.442;2022-09-09T13:49:00;1.23;;;0.40;;
22417;SDS011;11376;50.932;4.442;2022-09-09T13:51:43;4.13;;;0.40;;
22417;SDS011;11376;50.932;4.442;2022-09-09T13:54:12;3.42;;;0.47;;
22417;SDS011;11376;50.932;4.442;2022-09-09T13:56:39;1.48;;;0.40;;
22417;SDS011;11376;50.932;4.442;2022-09-09T13:59:11;1.70;;;0.30;;
22417;SDS011;11376;50.932;4.442;2022-09-09T14:01:38;2.60;;;0.40;;
22417;SDS011;11376;50.932;4.442;2022-09-09T14:04:05;1.15;;;0.30;;
22417;SDS011;11376;50.932;4.442;2022-09-09T14:06:31;1.55;;;0.20;;
22417;SDS011;11376;50.932;4.442;2022-09-09T14:09:00;1.00;;;0.32;;
22417;SDS011;11376;50.932;4.442;2022-09-09T14:11:25;1.55;;;0.47;;
22417;SDS011;11376;50.932;4.442;2022-09-09T14:13:51;1.20;;;0.22;;
22417;SDS011;11376;50.932;4.442;2022-09-09T14:16:17;1.55;;;0.20;;
22417;SDS011;11376;50.932;4.442;2022-09-09T14:18:43;2.60;;;0.40;;
22417;SDS011;11376;50.932;4.442;2022-09-09T14:21:09;2.58;;;0.52;;
22417;SDS011;11376;50.932;4.442;2022-09-09T14:23:35;2.83;;;0.30;;
22417;SDS011;11376;50.932;4.442;2022-09-09T14:26:03;4.93;;;0.50;;
22417;SDS011;11376;50.932;4.442;2022-09-09T14:28:32;0.88;;;0.20;;
22417;SDS011;11376;50.932;4.442;2022-09-09T14:31:02;3.33;;;0.40;;
22417;SDS011;11376;50.932;4.442;2022-09-09T14:33:29;2.03;;;0.30;;
22417;SDS011;11376;50.932;4.442;2022-09-09T14:35:58;1.33;;;0.30;;
22417;SDS011;11376;50.932;4.442;2022-09-09T14:38:28;0.73;;;0.35;;
22417;SDS011;11376;50.932;4.442;2022-09-09T14:40:55;3.90;;;0.45;;
22417;SDS011;11376;50.932;4.442;2022-09-09T14:43:21;3.00;;;0.60;;
22417;SDS011;11376;50.932;4.442;2022-09-09T14:45:47;0.75;;;0.30;;
22417;SDS011;11376;50.932;4.442;2022-09-09T14:48:18;1.40;;;0.30;;
22417;SDS011;11376;50.932;4.442;2022-09-09T14:50:44;3.72;;;0.82;;
22417;SDS011;11376;50.932;4.442;2022-09-09T14:53:10;6.53;;;0.70;;
22417;SDS011;11376;50.932;4.442;2022-09-09T14:55:36;2.38;;;0.47;;
22417;SDS011;11376;50.932;4.442;2022-09-09T14:58:02;2.55;;;0.30;;
22417;SDS011;11376;50.932;4.442;2022-09-09T15:00:28;0.52;;;0.40;;
22417;SDS011;11376;50.932;4.442;2022-09-09T15:02:54;2.15;;;0.65;;
22417;SDS011;11376;50.932;4.442;2022-09-09T15:05:20;3.53;;;0.60;;
22417;SDS011;11376;50.932;4.442;2022-09-09T15:07:46;1.52;;;0.40;;
22417;SDS011;11376;50.932;4.442;2022-09-09T15:10:13;1.55;;;0.30;;
22417;SDS011;11376;50.932;4.442;2022-09-09T15:12:39;0.95;;;0.45;;
22417;SDS011;11376;50.932;4.442;2022-09-09T15:15:06;1.48;;;0.40;;
22417;SDS011;11376;50.932;4.442;2022-09-09T15:17:33;1.50;;;0.30;;
22417;SDS011;11376;50.932;4.442;2022-09-09T15:19:59;0.93;;;0.22;;
22417;SDS011;11376;50.932;4.442;2022-09-09T15:22:25;0.63;;;0.30;;
22417;SDS011;11376;50.932;4.442;2022-09-09T15:24:50;12.40;;;1.00;;
22417;SDS011;11376;50.932;4.442;2022-09-09T15:27:16;1.70;;;0.40;;
22417;SDS011;11376;50.932;4.442;2022-09-09T15:29:43;0.60;;;0.30;;
22417;SDS011;11376;50.932;4.442;2022-09-09T15:32:09;2.83;;;0.40;;
22417;SDS011;11376;50.932;4.442;2022-09-09T15:34:35;1.25;;;0.50;;
22417;SDS011;11376;50.932;4.442;2022-09-09T15:37:00;2.80;;;0.50;;
22417;SDS011;11376;50.932;4.442;2022-09-09T15:39:26;2.15;;;0.52;;
22417;SDS011;11376;50.932;4.442;2022-09-09T15:41:51;2.65;;;0.52;;
22417;SDS011;11376;50.932;4.442;2022-09-09T15:44:17;3.63;;;0.65;;
22417;SDS011;11376;50.932;4.442;2022-09-09T15:46:50;2.13;;;0.38;;
22417;SDS011;11376;50.932;4.442;2022-09-09T15:49:22;1.80;;;0.50;;
22417;SDS011;11376;50.932;4.442;2022-09-09T15:51:53;0.93;;;0.32;;
22417;SDS011;11376;50.932;4.442;2022-09-09T15:54:20;3.47;;;0.70;;
22417;SDS011;11376;50.932;4.442;2022-09-09T15:56:51;4.53;;;0.50;;
22417;SDS011;11376;50.932;4.442;2022-09-09T15:59:20;0.75;;;0.32;;
22417;SDS011;11376;50.932;4.442;2022-09-09T16:01:50;2.95;;;0.50;;
22417;SDS011;11376;50.932;4.442;2022-09-09T16:04:17;2.20;;;0.50;;
22417;SDS011;11376;50.932;4.442;2022-09-09T16:06:48;2.78;;;0.32;;
22417;SDS011;11376;50.932;4.442;2022-09-09T16:09:15;2.40;;;0.65;;
22417;SDS011;11376;50.932;4.442;2022-09-09T16:11:40;2.15;;;0.47;;
22417;SDS011;11376;50.932;4.442;2022-09-09T16:14:06;2.30;;;0.60;;
22417;SDS011;11376;50.932;4.442;2022-09-09T16:16:32;3.00;;;0.70;;
22417;SDS011;11376;50.932;4.442;2022-09-09T16:19:00;3.08;;;0.43;;
22417;SDS011;11376;50.932;4.442;2022-09-09T16:21:33;3.70;;;0.63;;
22417;SDS011;11376;50.932;4.442;2022-09-09T16:24:01;1.85;;;0.43;;
22417;SDS011;11376;50.932;4.442;2022-09-09T16:26:29;1.63;;;0.43;;
22417;SDS011;11376;50.932;4.442;2022-09-09T16:28:56;4.25;;;0.50;;
22417;SDS011;11376;50.932;4.442;2022-09-09T16:31:24;4.70;;;0.63;;
22417;SDS011;11376;50.932;4.442;2022-09-09T16:33:50;3.65;;;0.50;;
22417;SDS011;11376;50.932;4.442;2022-09-09T16:36:17;1.08;;;0.30;;
22417;SDS011;11376;50.932;4.442;2022-09-09T16:38:45;2.47;;;0.90;;
22417;SDS011;11376;50.932;4.442;2022-09-09T16:41:11;2.35;;;0.60;;
22417;SDS011;11376;50.932;4.442;2022-09-09T16:43:38;4.80;;;0.80;;
22417;SDS011;11376;50.932;4.442;2022-09-09T16:46:14;1.55;;;0.52;;
22417;SDS011;11376;50.932;4.442;2022-09-09T16:48:42;2.40;;;0.60;;
22417;SDS011;11376;50.932;4.442;2022-09-09T16:51:21;2.72;;;0.35;;
22417;SDS011;11376;50.932;4.442;2022-09-09T16:53:48;1.38;;;0.40;;
22417;SDS011;11376;50.932;4.442;2022-09-09T16:56:18;1.05;;;0.40;;
22417;SDS011;11376;50.932;4.442;2022-09-09T16:58:55;0.88;;;0.30;;
22417;SDS011;11376;50.932;4.442;2022-09-09T17:01:22;1.70;;;0.43;;
22417;SDS011;11376;50.932;4.442;2022-09-09T17:03:52;4.68;;;0.68;;
22417;SDS011;11376;50.932;4.442;2022-09-09T17:06:18;0.57;;;0.30;;
22417;SDS011;11376;50.932;4.442;2022-09-09T17:08:44;3.13;;;0.50;;
22417;SDS011;11376;50.932;4.442;2022-09-09T17:11:14;1.25;;;0.40;;
22417;SDS011;11376;50.932;4.442;2022-09-09T17:13:45;1.88;;;0.47;;
22417;SDS011;11376;50.932;4.442;2022-09-09T17:16:12;1.80;;;0.40;;
22417;SDS011;11376;50.932;4.442;2022-09-09T17:18:39;2.15;;;0.25;;
22417;SDS011;11376;50.932;4.442;2022-09-09T17:21:06;0.55;;;0.20;;
22417;SDS011;11376;50.932;4.442;2022-09-09T17:23:37;1.55;;;0.40;;
22417;SDS011;11376;50.932;4.442;2022-09-09T17:26:03;0.40;;;0.22;;
22417;SDS011;11376;50.932;4.442;2022-09-09T17:28:32;1.40;;;0.50;;
22417;SDS011;11376;50.932;4.442;2022-09-09T17:31:00;0.60;;;0.30;;
22417;SDS011;11376;50.932;4.442;2022-09-09T17:33:29;1.42;;;0.40;;